Empuriabrava, Spain
Current Conditions -  °F | °C
As of 12:30 AM on Tuesday 21 Oct 2014 (Local Time) from LEGE Reporting Station
Haze Haze  
Wind Chill: 59°   Ceiling: Unl
Heat Index: 59°   Visibility: 3mi
Dew Point: 59°   Wind: 0mph
Humidity: 100%   Direction: NA
Pressure: 30.09"   Gusts: NA
Location:  42.25°N, 3.12°E
Report Text: LEGE 202230Z 00000KT 5000 BR NSC 15/15 Q1019
Loading
Personal Weather Stations






























Interactive Weather Map
Tropical Storm Tracking
New forecast layout! Learn more

10-Day Weather Forecast

Advertisements
Track Severe Weather on mobile